createdAt,value
2024-04-09T00:08:32.713Z,12.8
2024-04-09T00:23:33.813Z,12.8
2024-04-09T00:38:34.588Z,12.8
2024-04-09T00:53:31.897Z,12.8
2024-04-09T01:08:44.128Z,12.8
2024-04-09T01:23:42.778Z,12.8
2024-04-09T01:38:44.338Z,12.8
2024-04-09T01:53:41.731Z,12.8
2024-04-09T02:08:51.750Z,12.8
2024-04-09T02:23:53.973Z,12.8
2024-04-09T02:38:53.302Z,12.8
2024-04-09T02:53:52.017Z,12.8
2024-04-09T03:09:02.647Z,12.8
2024-04-09T03:24:04.161Z,12.8
2024-04-09T03:39:04.580Z,12.8
2024-04-09T03:54:02.693Z,12.8
2024-04-09T04:09:12.894Z,12.8
2024-04-09T04:24:14.011Z,12.8
2024-04-09T04:39:15.222Z,12.8
2024-04-09T04:54:12.833Z,12.8
2024-04-09T05:09:23.441Z,12.8
2024-04-09T05:24:24.621Z,12.8
2024-04-09T05:39:26.044Z,12.8
2024-04-09T05:54:25.158Z,12.7
2024-04-09T06:09:36.326Z,12.7
2024-04-09T06:24:37.334Z,12.7
2024-04-09T06:39:36.928Z,12.7
2024-04-09T07:54:43.354Z,12.9
2024-04-09T08:09:54.103Z,12.9
2024-04-09T08:24:54.432Z,12.9
2024-04-09T08:39:56.481Z,12.9
2024-04-09T08:54:53.674Z,12.9
2024-04-09T09:10:04.975Z,12.9
2024-04-09T09:25:05.103Z,12.9
2024-04-09T09:40:06.822Z,13
2024-04-09T09:55:12.452Z,13.4
2024-04-09T10:10:23.642Z,13.4
2024-04-09T10:25:24.832Z,13.4
2024-04-09T10:40:25.383Z,13.4
2024-04-09T10:55:14.594Z,13.7
2024-04-09T11:10:25.833Z,13.7
2024-04-09T11:25:28.187Z,13.6
2024-04-09T11:40:27.228Z,13.6
2024-04-09T11:55:27.936Z,13.2
2024-04-09T12:10:37.880Z,13.2
2024-04-09T12:25:39.419Z,13.2
2024-04-09T12:40:42.127Z,13.2
2024-04-09T12:55:37.467Z,13
2024-04-09T13:10:48.842Z,13.1
2024-04-09T13:25:50.029Z,13.1
2024-04-09T13:40:51.342Z,13.1
2024-04-09T13:55:47.765Z,13.6
2024-04-09T14:11:01.858Z,13.5
2024-04-09T14:25:59.471Z,13.5
2024-04-09T14:41:03.124Z,13.5
2024-04-09T14:55:57.897Z,13.3
2024-04-09T15:11:08.259Z,13.3
2024-04-09T15:26:09.085Z,13.3
2024-04-09T15:41:10.723Z,13.3
2024-04-09T15:56:05.456Z,13.6
2024-04-09T16:11:16.599Z,13.6
2024-04-09T16:26:17.273Z,13.5
2024-04-09T16:41:22.442Z,13.4
2024-04-09T16:56:14.923Z,12.8
2024-04-09T17:11:26.197Z,12.8
2024-04-09T17:26:26.024Z,12.8
2024-04-09T17:41:29.431Z,12.8
2024-04-09T17:56:25.042Z,12.8
2024-04-09T18:11:36.611Z,12.8
2024-04-09T18:26:36.197Z,12.8
2024-04-09T18:41:37.409Z,12.8
2024-04-09T18:56:35.842Z,12.8
2024-04-09T19:11:50.333Z,12.8
2024-04-09T19:26:47.698Z,12.8
2024-04-09T19:41:48.693Z,12.8
2024-04-09T19:56:45.444Z,12.5
2024-04-09T20:11:56.472Z,12.5
2024-04-09T20:26:56.893Z,12.5
2024-04-09T20:41:57.113Z,12.6
2024-04-09T20:56:56.045Z,12.8
2024-04-09T21:12:15.549Z,12.8
2024-04-09T21:27:15.889Z,12.8
2024-04-09T21:42:17.770Z,12.8
2024-04-09T21:57:05.761Z,12.8
2024-04-09T22:12:16.347Z,12.8
2024-04-09T22:27:17.425Z,12.8
2024-04-09T22:42:18.404Z,12.8
2024-04-09T22:57:15.898Z,12.8
2024-04-09T23:12:28.126Z,12.8
2024-04-09T23:27:27.726Z,12.8
2024-04-09T23:42:28.787Z,12.8
2024-04-09T23:57:25.800Z,12.8
